Clear Sky Current Weather (METAR) For Innsbruck - Kranebitten Airport

All times on the weather descriptions are local

Observed at 08:50 - (31 mins ago)

Clear Sky

1°C

Clear Sky
Clouds:
Wind: Variable at 02 knots
Visibility: Greater than 10km
QNH: 1025
Dew Point: 1°C
Runway in Use: Unable to determine, wind is variable

Sunrise Today: 07:28
Sunset Today: 16:33

Forecast Weather (TAF) For Innsbruck - Kranebitten Airport

Issued at 01:00 - (6 days 15 hrs ago)


Runway in Use: Unable to determine, wind is clam

Forecast valid until 01:00 on Sunday

METAR/TAF RAW METAR / TAF

LOWI 230750Z VRB02KT CAVOK 01/01 Q1025 NOSIG

Weather Widget

Put weather from any of our airports on your website with our weather widget.

Find Another Search

Airport Search


Please Wait Please Wait - Loading
Close
Close

Login

Username:

Password:

Remember Me:

Remember me on this computer

Forgotten your password? Get a reset password sent to your registered e-mail address

Close

User Private Message

Subject:

Message: